This is the latest recevied weather packets stored in our database for station/object AB8KN-2. If no packets are shown the sender has not sent any weather packets the latest 10 day(s).
| Time | Temp. | Humidity | Pressure | Rain* | Wind** | Luminosity | Snow |
|---|---|---|---|---|---|---|---|
| 1777359017 | 15.56° C | 95% | 1012.2 hPa | 12.7 mm | - | 0 W/m² | - |
| 1777356617 | 15.56° C | 94% | 1010.9 hPa | 4.32 mm | - | 0 W/m² | - |
| 1777354216 | 16.11° C | 91% | 1009.8 hPa | 2.29 mm | - | 0 W/m² | - |
| 1777351816 | 16.11° C | 93% | 1008.8 hPa | 1.02 mm | - | 0 W/m² | - |
| 1777351216 | 16.11° C | 93% | 1008.9 hPa | 0.76 mm | - | 0 W/m² | - |
| 1777344015 | 16.67° C | 97% | 1014.2 hPa | 4.83 mm | - | 0 W/m² | - |
| 1777343415 | 16.67° C | 97% | 1014.3 hPa | 5.08 mm | - | 0 W/m² | - |
| 1777342819 | 16.67° C | 97% | 1014.5 hPa | 5.08 mm | - | 0 W/m² | - |
| 1777338617 | 17.78° C | 95% | 1015 hPa | 6.6 mm | - | 0 W/m² | - |
| 1777338017 | 17.78° C | 95% | 1015 hPa | 7.11 mm | - | 0 W/m² | - |
| 1777336818 | 18.33° C | 95% | 1014.7 hPa | 6.6 mm | - | 0 W/m² | - |
| 1777336218 | 18.33° C | 94% | 1014.5 hPa | 6.6 mm | - | 0 W/m² | - |
| 1777335618 | 18.33° C | 94% | 1014.3 hPa | 6.6 mm | - | 0 W/m² | - |
| 1777334418 | 18.89° C | 91% | 1014.4 hPa | 7.11 mm | - | 1 W/m² | - |
| 1777332016 | 21.67° C | 79% | 1014.6 hPa | 2.79 mm | - | 5 W/m² | - |
| 1777331416 | 22.78° C | 71% | 1014.6 hPa | 1.52 mm | - | 6 W/m² | - |
| 1777329017 | 23.89° C | 54% | 1014.1 hPa | 0 mm | - | 22 W/m² | - |
| 1777325438 | 24.44° C | 53% | 1013.3 hPa | 0 mm | - | 97 W/m² | - |
| 1777324818 | 24.44° C | 53% | 1013.5 hPa | 0 mm | - | 111 W/m² | - |
| 1777321815 | 25.56° C | 52% | 1013.8 hPa | 0 mm | - | 192 W/m² | - |
| 1777320016 | 25.56° C | 52% | 1014.2 hPa | 0 mm | - | 351 W/m² | - |
| 1777316417 | 25.56° C | 50% | 1015.3 hPa | 0 mm | - | 566 W/m² | - |
| 1777314616 | 24.44° C | 51% | 1015.8 hPa | 0 mm | - | 624 W/m² | - |
| 1777309216 | 22.22° C | 58% | 1017.5 hPa | 0 mm | - | 767 W/m² | - |
| 1777299636 | 16.67° C | 68% | 1019.1 hPa | 0 mm | - | 592 W/m² | - |
* Rain latest hour (hover to see other rain measurements)
** Current wind speed in m/s (hover to see current wind gust speed)